createdAt,value
2022-09-21T00:01:42.666Z,98014.19
2022-09-21T00:04:11.757Z,98009.03
2022-09-21T00:06:40.611Z,98015.16
2022-09-21T00:09:09.609Z,98010.84
2022-09-21T00:11:38.302Z,98015.28
2022-09-21T00:14:10.475Z,98009.16
2022-09-21T00:16:40.223Z,98015.28
2022-09-21T00:19:10.644Z,98003.84
2022-09-21T00:21:39.511Z,98008.31
2022-09-21T00:24:08.842Z,98004.00
2022-09-21T00:26:37.434Z,98005.81
2022-09-21T00:29:06.947Z,98011.94
2022-09-21T00:31:36.041Z,98005.94
2022-09-21T00:34:07.877Z,98004.97
2022-09-21T00:36:38.164Z,98009.41
2022-09-21T00:39:07.030Z,98006.06
2022-09-21T00:41:35.957Z,97999.09
2022-09-21T00:44:26.163Z,98003.53
2022-09-21T00:46:57.409Z,98011.34
2022-09-21T00:49:27.107Z,98015.94
2022-09-21T00:51:57.880Z,98009.81
2022-09-21T00:54:29.892Z,98024.03
2022-09-21T00:57:01.374Z,98010.78
2022-09-21T00:59:31.687Z,98023.19
2022-09-21T01:02:01.156Z,98026.81
2022-09-21T01:04:30.777Z,98025.00
2022-09-21T01:07:04.416Z,98020.66
2022-09-21T01:09:33.431Z,98022.47
2022-09-21T01:12:15.197Z,98026.94
2022-09-21T01:14:55.022Z,98023.44
2022-09-21T01:17:31.784Z,98018.28
2022-09-21T01:20:20.180Z,98015.63
2022-09-21T01:23:01.558Z,98012.97
2022-09-21T01:25:36.574Z,98015.75
2022-09-21T01:28:13.940Z,98017.56
2022-09-21T01:30:48.944Z,98015.88
2022-09-21T01:33:25.961Z,98006.97
2022-09-21T01:35:58.259Z,98015.16
2022-09-21T01:38:29.483Z,98017.81
2022-09-21T01:41:02.661Z,98016.84
2022-09-21T01:43:36.064Z,98019.63
2022-09-21T01:46:08.303Z,98013.50
2022-09-21T01:48:41.357Z,98021.44
2022-09-21T01:51:13.693Z,98022.41
2022-09-21T01:53:44.857Z,98022.41
2022-09-21T01:56:16.238Z,98027.69
2022-09-21T01:58:47.634Z,98032.16
2022-09-21T02:01:20.363Z,98025.19
2022-09-21T02:03:52.461Z,98021.69
2022-09-21T02:06:21.786Z,98012.94
2022-09-21T02:08:50.393Z,98017.41
2022-09-21T02:11:19.079Z,98018.38
2022-09-21T02:13:50.238Z,98008.63
2022-09-21T02:16:35.907Z,98016.69
2022-09-21T02:19:12.319Z,98015.84
2022-09-21T02:21:49.269Z,98011.38
2022-09-21T02:24:25.313Z,98017.78
2022-09-21T02:26:57.162Z,98019.47
2022-09-21T02:29:30.159Z,98020.44
2022-09-21T02:32:05.407Z,98021.28
2022-09-21T02:34:37.039Z,98019.59
2022-09-21T02:37:10.759Z,98033.81
2022-09-21T02:39:44.405Z,98028.50
2022-09-21T02:42:15.595Z,98037.41
2022-09-21T02:44:49.127Z,98027.66
2022-09-21T02:47:21.473Z,98034.88
2022-09-21T02:49:53.532Z,98033.09
2022-09-21T02:52:23.274Z,98034.06
2022-09-21T02:54:53.722Z,98032.38
2022-09-21T02:57:24.058Z,98032.38
2022-09-21T02:59:53.615Z,98028.88
2022-09-21T03:02:23.659Z,98029.84
2022-09-21T03:04:52.323Z,98031.66
2022-09-21T03:07:21.089Z,98029.00
2022-09-21T03:09:49.776Z,98029.97
2022-09-21T03:12:18.396Z,98027.34
2022-09-21T03:14:47.056Z,98030.09
2022-09-21T03:17:15.855Z,98023.97
2022-09-21T03:19:46.057Z,98026.63
2022-09-21T03:22:14.767Z,98033.72
2022-09-21T03:24:49.087Z,98035.53
2022-09-21T03:27:19.791Z,98033.72
2022-09-21T03:29:48.783Z,98027.72
2022-09-21T03:32:17.623Z,98035.66
2022-09-21T03:34:47.625Z,98037.34
2022-09-21T03:37:17.166Z,98032.16
2022-09-21T03:39:47.210Z,98037.47
2022-09-21T03:42:16.111Z,98044.56
2022-09-21T03:44:44.784Z,98039.41
2022-09-21T03:47:13.710Z,98035.78
2022-09-21T03:49:42.419Z,98036.75
2022-09-21T03:52:12.631Z,98040.38
2022-09-21T03:54:41.715Z,98034.22
2022-09-21T03:57:10.295Z,98043.97
2022-09-21T03:59:39.088Z,98057.22
2022-09-21T04:02:07.856Z,98044.09
2022-09-21T04:04:37.168Z,98055.66
2022-09-21T04:07:05.990Z,98059.16
2022-09-21T04:09:36.088Z,98053.13
2022-09-21T04:12:04.993Z,98052.28
2022-09-21T04:14:33.870Z,98055.91
2022-09-21T04:17:02.500Z,98060.25
2022-09-21T04:19:31.179Z,98056.75
2022-09-21T04:21:59.929Z,98056.03
2022-09-21T04:24:31.047Z,98056.75
2022-09-21T04:27:01.195Z,98056.88
2022-09-21T04:29:30.091Z,98065.66
2022-09-21T04:31:58.780Z,98070.94
2022-09-21T04:34:28.296Z,98070.94
2022-09-21T04:36:57.358Z,98077.22
2022-09-21T04:39:26.281Z,98075.53
2022-09-21T04:41:55.173Z,98072.03
2022-09-21T04:44:25.316Z,98074.81
2022-09-21T04:46:54.015Z,98071.31
2022-09-21T04:49:22.741Z,98075.78
2022-09-21T04:51:51.707Z,98074.94
2022-09-21T04:54:20.369Z,98084.69
2022-09-21T04:56:49.303Z,98075.91
2022-09-21T04:59:18.496Z,98082.03
2022-09-21T05:01:48.856Z,98084.81
2022-09-21T05:04:17.924Z,98087.47
2022-09-21T05:06:46.758Z,98090.22
2022-09-21T05:09:33.314Z,98097.31
2022-09-21T05:12:03.344Z,98099.84
2022-09-21T05:14:32.295Z,98101.78
2022-09-21T05:17:02.376Z,98104.44
2022-09-21T05:19:31.098Z,98110.69
2022-09-21T05:21:59.747Z,98109.84
2022-09-21T05:24:28.384Z,98109.97
2022-09-21T05:26:57.194Z,98111.66
2022-09-21T05:29:26.328Z,98114.28
2022-09-21T05:31:57.377Z,98117.91
2022-09-21T05:34:37.888Z,98102.03
2022-09-21T05:37:10.310Z,98116.22
2022-09-21T05:39:39.204Z,98116.22
2022-09-21T05:42:08.592Z,98117.06
2022-09-21T05:44:37.717Z,98118.75
2022-09-21T05:47:13.987Z,98121.50
2022-09-21T05:49:51.222Z,98116.09
2022-09-21T05:52:24.178Z,98127.66
2022-09-21T05:55:01.171Z,98131.13
2022-09-21T05:57:36.770Z,98120.56
2022-09-21T06:00:13.264Z,98124.03
2022-09-21T06:02:51.836Z,98128.50
2022-09-21T06:05:22.756Z,98124.88
2022-09-21T06:07:51.119Z,98128.50
2022-09-21T06:10:19.872Z,98136.31
2022-09-21T06:12:48.288Z,98125.84
2022-09-21T06:15:17.349Z,98127.53
2022-09-21T06:17:45.750Z,98131.84
2022-09-21T06:20:14.212Z,98125.72
2022-09-21T06:22:44.045Z,98124.88
2022-09-21T06:25:12.366Z,98131.84
2022-09-21T06:27:40.780Z,98132.81
2022-09-21T06:30:10.450Z,98130.16
2022-09-21T06:32:39.328Z,98130.16
2022-09-21T06:35:08.372Z,98137.16
2022-09-21T06:37:38.363Z,98138.94
2022-09-21T06:40:09.977Z,98142.44
2022-09-21T06:42:38.380Z,98138.22
2022-09-21T06:45:08.126Z,98138.00
2022-09-21T06:47:36.562Z,98142.44
2022-09-21T06:50:05.306Z,98149.41
2022-09-21T06:52:45.223Z,98145.94
2022-09-21T06:55:18.270Z,98142.44
2022-09-21T06:57:46.761Z,98142.44
2022-09-21T07:00:15.884Z,98138.81
2022-09-21T07:02:45.586Z,98141.47
2022-09-21T07:05:16.396Z,98144.13
2022-09-21T07:07:45.527Z,98139.66
2022-09-21T07:10:18.520Z,98142.19
2022-09-21T07:12:51.993Z,98156.38
2022-09-21T07:15:21.437Z,98146.53
2022-09-21T07:17:52.207Z,98144.84
2022-09-21T07:20:21.462Z,98152.66
2022-09-21T07:22:49.879Z,98152.66
2022-09-21T07:25:18.706Z,98148.06
2022-09-21T07:27:48.200Z,98160.59
2022-09-21T07:30:18.320Z,98151.69
2022-09-21T07:32:47.149Z,98156.16
2022-09-21T07:35:16.150Z,98159.75
2022-09-21T07:37:44.767Z,98157.81
2022-09-21T07:40:13.585Z,98160.47
2022-09-21T07:42:44.975Z,98165.75
2022-09-21T07:45:13.493Z,98176.09
2022-09-21T07:47:43.757Z,98171.78
2022-09-21T07:50:12.204Z,98171.53
2022-09-21T07:52:40.576Z,98168.88
2022-09-21T07:55:09.505Z,98168.88
2022-09-21T07:57:55.478Z,98175.88
2022-09-21T08:00:24.891Z,98171.53
2022-09-21T08:02:54.788Z,98170.69
2022-09-21T08:05:23.136Z,98175.88
2022-09-21T08:07:53.283Z,98165.16
2022-09-21T08:10:21.794Z,98165.28
2022-09-21T08:12:50.504Z,98175.88
2022-09-21T08:15:44.062Z,98167.91
2022-09-21T08:18:08.660Z,98175.03
2022-09-21T08:20:37.452Z,98174.91
2022-09-21T08:23:05.821Z,98181.03
2022-09-21T08:25:34.780Z,98181.03
2022-09-21T08:28:07.399Z,98174.91
2022-09-21T08:30:38.070Z,98181.88
2022-09-21T08:33:08.254Z,98179.09
2022-09-21T08:35:37.004Z,98174.66
2022-09-21T08:38:05.433Z,98182.59
2022-09-21T08:40:34.863Z,98178.03
2022-09-21T08:43:05.343Z,98188.59
2022-09-21T08:45:35.857Z,98183.19
2022-09-21T08:48:06.563Z,98181.38
2022-09-21T08:50:39.016Z,98182.34
2022-09-21T08:53:10.829Z,98184.03
2022-09-21T08:55:39.258Z,98172.47
2022-09-21T08:58:23.147Z,98184.75
2022-09-21T09:01:06.742Z,98180.28
2022-09-21T09:03:50.754Z,98180.16
2022-09-21T09:06:26.873Z,98179.94
2022-09-21T09:09:16.280Z,98184.25
2022-09-21T09:11:53.599Z,98177.16
2022-09-21T09:14:38.686Z,98179.56
2022-09-21T09:17:20.947Z,98173.28
2022-09-21T09:19:52.839Z,98172.19
2022-09-21T09:22:25.706Z,98176.53
2022-09-21T09:24:56.850Z,98163.88
2022-09-21T09:27:29.864Z,98166.53
2022-09-21T09:30:04.050Z,98167.09
2022-09-21T09:32:41.142Z,98165.16
2022-09-21T09:35:19.000Z,98162.38
2022-09-21T09:38:06.019Z,98162.13
2022-09-21T09:40:46.442Z,98155.88
2022-09-21T09:43:22.218Z,98152.38
2022-09-21T09:45:58.330Z,98158.41
2022-09-21T09:48:35.889Z,98151.16
2022-09-21T09:51:04.410Z,98145.75
2022-09-21T09:53:36.068Z,98148.97
2022-09-21T09:56:04.605Z,98140.91
2022-09-21T09:58:39.557Z,98140.78
2022-09-21T10:01:08.134Z,98138.00
2022-09-21T10:03:37.346Z,98138.72
2022-09-21T10:06:05.968Z,98134.97
2022-09-21T10:08:44.323Z,98130.38
2022-09-21T10:11:13.934Z,98133.63
2022-09-21T10:13:44.017Z,98127.22
2022-09-21T10:16:19.373Z,98129.75
2022-09-21T10:18:49.278Z,98133.09
2022-09-21T10:21:21.220Z,98127.53
2022-09-21T10:23:54.195Z,98127.41
2022-09-21T10:26:22.979Z,98127.16
2022-09-21T10:28:57.794Z,98123.53
2022-09-21T10:31:28.443Z,98117.97
2022-09-21T10:34:08.075Z,98120.50
2022-09-21T10:36:38.872Z,98119.41
2022-09-21T10:39:30.235Z,98127.25
2022-09-21T10:42:06.168Z,98121.81
2022-09-21T10:44:38.896Z,98116.75
2022-09-21T10:47:18.004Z,98114.84
2022-09-21T10:49:50.374Z,98111.94
2022-09-21T10:52:20.220Z,98106.38
2022-09-21T10:54:52.716Z,98113.09
2022-09-21T10:57:24.030Z,98106.69
2022-09-21T10:59:52.662Z,98100.28
2022-09-21T11:02:35.446Z,98104.31
2022-09-21T11:05:09.702Z,98100.56
2022-09-21T11:07:42.940Z,98099.47
2022-09-21T11:10:18.414Z,98100.88
2022-09-21T11:12:54.640Z,98106.19
2022-09-21T11:15:34.234Z,98105.78
2022-09-21T11:18:07.374Z,98097.69
2022-09-21T11:20:42.279Z,98088.50
2022-09-21T11:23:22.213Z,98096.34
2022-09-21T11:25:59.918Z,98095.22
2022-09-21T11:28:33.573Z,98093.16
2022-09-21T11:31:21.325Z,98094.69
2022-09-21T11:34:01.379Z,98088.41
2022-09-21T11:36:35.527Z,98087.19
2022-09-21T11:39:08.973Z,98090.53
2022-09-21T11:41:53.732Z,98090.25
2022-09-21T11:44:53.157Z,98087.34
2022-09-21T11:47:49.063Z,98086.09
2022-09-21T11:50:36.776Z,98068.94
2022-09-21T11:53:25.405Z,98075.78
2022-09-21T11:56:12.513Z,98084.19
2022-09-21T11:58:46.909Z,98071.47
2022-09-21T12:01:24.861Z,98072.03
2022-09-21T12:04:07.687Z,98076.38
2022-09-21T12:06:47.486Z,98075.66
2022-09-21T12:09:38.550Z,98067.97
2022-09-21T12:12:10.727Z,98064.66
2022-09-21T12:14:45.521Z,98062.38
2022-09-21T12:17:17.922Z,98058.63
2022-09-21T12:19:50.685Z,98064.22
2022-09-21T12:22:22.280Z,98055.41
2022-09-21T12:24:52.755Z,98053.22
2022-09-21T12:27:27.604Z,98058.09
2022-09-21T12:30:02.150Z,98061.03
2022-09-21T12:32:40.761Z,98063.28
2022-09-21T12:35:16.100Z,98058.69
2022-09-21T12:37:48.972Z,98053.94
2022-09-21T12:40:25.263Z,98053.66
2022-09-21T12:42:57.217Z,98050.72
2022-09-21T12:45:30.495Z,98047.09
2022-09-21T12:48:00.871Z,98057.44
2022-09-21T12:50:34.121Z,98045.81
2022-09-21T12:53:03.521Z,98047.38
2022-09-21T12:55:36.420Z,98046.09
2022-09-21T12:58:17.532Z,98046.81
2022-09-21T13:00:52.843Z,98041.22
2022-09-21T13:03:27.144Z,98043.44
2022-09-21T13:06:11.591Z,98039.09
2022-09-21T13:08:43.401Z,98040.09
2022-09-21T13:11:12.400Z,98037.16
2022-09-21T13:13:51.358Z,98041.47
2022-09-21T13:16:27.569Z,98038.25
2022-09-21T13:19:00.620Z,98030.97
2022-09-21T13:21:30.946Z,98027.06
2022-09-21T13:24:01.405Z,98032.94
2022-09-21T13:26:33.916Z,98028.47
2022-09-21T13:29:19.982Z,98029.13
2022-09-21T13:31:58.774Z,98025.47
2022-09-21T13:34:35.584Z,98022.59
2022-09-21T13:37:31.297Z,98016.28
2022-09-21T13:40:41.538Z,98009.94
2022-09-21T13:43:46.512Z,98007.28
2022-09-21T13:46:46.553Z,98011.63
2022-09-21T13:49:21.222Z,98006.16
2022-09-21T13:51:55.263Z,98004.19
2022-09-21T13:54:26.799Z,98002.22
2022-09-21T13:57:09.115Z,98005.59
2022-09-21T13:59:41.032Z,97999.28
2022-09-21T14:02:24.512Z,97998.88
2022-09-21T14:04:54.671Z,98001.94
2022-09-21T14:07:30.204Z,97994.56
2022-09-21T14:10:00.772Z,98000.28
2022-09-21T14:12:35.178Z,98003.63
2022-09-21T14:15:27.175Z,98000.13
2022-09-21T14:18:21.446Z,98002.66
2022-09-21T14:21:11.133Z,98001.94
2022-09-21T14:23:41.246Z,98002.09
2022-09-21T14:26:33.978Z,98000.13
2022-09-21T14:29:09.632Z,98001.66
2022-09-21T14:31:38.987Z,97987.38
2022-09-21T14:34:14.609Z,97995.06
2022-09-21T14:36:47.610Z,97996.75
2022-09-21T14:39:19.554Z,97984.28
2022-09-21T14:41:51.409Z,97992.25
2022-09-21T14:44:22.510Z,97990.72
2022-09-21T14:47:10.838Z,97984.56
2022-09-21T14:49:57.483Z,97982.47
2022-09-21T14:52:38.150Z,97986.09
2022-09-21T14:55:17.223Z,97992.41
2022-09-21T14:57:55.987Z,97985.28
2022-09-21T15:00:26.608Z,97980.78
2022-09-21T15:03:18.959Z,97985.13
2022-09-21T15:05:50.612Z,97977.97
2022-09-21T15:08:52.567Z,97964.41
2022-09-21T15:11:23.832Z,97974.88
2022-09-21T15:14:21.312Z,97972.22
2022-09-21T15:16:51.704Z,97964.41
2022-09-21T15:19:25.566Z,97973.06
2022-09-21T15:21:54.812Z,97971.38
2022-09-21T15:24:29.371Z,97969.31
2022-09-21T15:27:05.883Z,97968.72
2022-09-21T15:29:35.181Z,97968.59
2022-09-21T15:32:04.220Z,97957.81
2022-09-21T15:34:33.008Z,97963.81
2022-09-21T15:37:09.188Z,97969.81
2022-09-21T15:39:41.212Z,97966.19
2022-09-21T15:42:18.185Z,97958.88
2022-09-21T15:44:49.034Z,97957.06
2022-09-21T15:47:20.315Z,97960.41
2022-09-21T15:49:49.000Z,97959.28
2022-09-21T15:52:24.996Z,97958.16
2022-09-21T15:54:58.277Z,97962.47
2022-09-21T15:57:36.314Z,97959.53
2022-09-21T16:00:09.135Z,97961.19
2022-09-21T16:02:40.747Z,97951.41
2022-09-21T16:05:14.271Z,97960.06
2022-09-21T16:07:42.740Z,97963.56
2022-09-21T16:10:41.039Z,97964.56
2022-09-21T16:13:36.383Z,97968.88
2022-09-21T16:16:06.977Z,97959.91
2022-09-21T16:18:43.193Z,97973.06
2022-09-21T16:21:20.350Z,97956.28
2022-09-21T16:23:49.622Z,97965.78
2022-09-21T16:26:24.684Z,97964.94
2022-09-21T16:29:19.273Z,97972.25
2022-09-21T16:31:50.342Z,97970.56
2022-09-21T16:34:22.695Z,97970.03
2022-09-21T16:36:52.873Z,97964.47
2022-09-21T16:39:22.743Z,97968.53
2022-09-21T16:42:00.088Z,97967.31
2022-09-21T16:44:31.435Z,97966.63
2022-09-21T16:47:01.265Z,97971.38
2022-09-21T16:49:31.470Z,97970.84
2022-09-21T16:52:01.349Z,97963.00
2022-09-21T16:54:30.224Z,97971.97
2022-09-21T16:57:00.355Z,97980.09
2022-09-21T16:59:33.067Z,97971.44
2022-09-21T17:02:04.312Z,97972.41
2022-09-21T17:04:34.321Z,97974.38
2022-09-21T17:07:04.974Z,97968.38
2022-09-21T17:09:35.439Z,97972.00
2022-09-21T17:12:06.230Z,97973.97
2022-09-21T17:14:37.848Z,97973.28
2022-09-21T17:17:08.582Z,97973.28
2022-09-21T17:19:37.109Z,97967.25
2022-09-21T17:22:07.004Z,97970.88
2022-09-21T17:24:50.423Z,97977.19
2022-09-21T17:27:21.700Z,97973.84
2022-09-21T17:29:53.865Z,97973.13
2022-09-21T17:32:24.333Z,97977.63
2022-09-21T17:34:56.366Z,97979.44
2022-09-21T17:37:26.002Z,97977.75
2022-09-21T17:39:54.649Z,97975.41
2022-09-21T17:42:25.959Z,97970.06
2022-09-21T17:45:12.674Z,97981.69
2022-09-21T17:47:42.091Z,97985.34
2022-09-21T17:50:20.526Z,97985.47
2022-09-21T17:53:07.365Z,97994.44
2022-09-21T17:55:36.408Z,97986.59
2022-09-21T17:58:12.198Z,97998.06
2022-09-21T18:00:51.210Z,97998.22
2022-09-21T18:03:22.957Z,97993.22
2022-09-21T18:05:55.806Z,97993.22
2022-09-21T18:08:26.391Z,97999.50
2022-09-21T18:11:04.385Z,97990.84
2022-09-21T18:13:39.732Z,97999.78
2022-09-21T18:16:21.314Z,97998.13
2022-09-21T18:18:55.799Z,97996.44
2022-09-21T18:21:25.785Z,97991.28
2022-09-21T18:24:09.229Z,97994.22
2022-09-21T18:26:40.370Z,98003.31
2022-09-21T18:29:38.911Z,97998.97
2022-09-21T18:32:24.878Z,98009.75
2022-09-21T18:35:15.698Z,98008.06
2022-09-21T18:37:50.518Z,98009.03
2022-09-21T18:40:25.869Z,98010.16
2022-09-21T18:42:59.468Z,98010.16
2022-09-21T18:45:31.887Z,98014.78
2022-09-21T18:48:21.423Z,98016.59
2022-09-21T18:50:57.552Z,98010.59
2022-09-21T18:53:30.905Z,98019.53
2022-09-21T18:56:00.139Z,98016.19
2022-09-21T18:58:30.503Z,98025.97
2022-09-21T19:01:00.407Z,98023.31
2022-09-21T19:03:30.818Z,98023.44
2022-09-21T19:06:13.280Z,98018.28
2022-09-21T19:08:47.548Z,98019.25
2022-09-21T19:11:21.936Z,98027.22
2022-09-21T19:13:55.769Z,98017.59
2022-09-21T19:16:32.260Z,98014.09
2022-09-21T19:19:12.189Z,98014.22
2022-09-21T19:21:45.769Z,98016.03
2022-09-21T19:24:21.540Z,98014.38
2022-09-21T19:26:55.889Z,98014.38
2022-09-21T19:29:39.300Z,98013.69
2022-09-21T19:32:15.367Z,98014.50
2022-09-21T19:34:45.731Z,98018.16
2022-09-21T19:37:14.303Z,98012.97
2022-09-21T19:39:44.814Z,98013.13
2022-09-21T19:42:26.509Z,98014.09
2022-09-21T19:45:06.461Z,98013.25
2022-09-21T19:47:38.178Z,98016.03
2022-09-21T19:50:15.496Z,98016.03
2022-09-21T19:52:44.567Z,98017.03
2022-09-21T19:55:33.111Z,98014.50
2022-09-21T19:58:19.556Z,98018.97
2022-09-21T20:00:52.091Z,98027.09
2022-09-21T20:03:31.086Z,98018.28
2022-09-21T20:06:05.725Z,98014.94
2022-09-21T20:08:38.895Z,98006.13
2022-09-21T20:11:13.285Z,98005.28
2022-09-21T20:13:53.063Z,98015.06
2022-09-21T20:16:34.388Z,98012.56
2022-09-21T20:19:18.117Z,98013.53
2022-09-21T20:21:50.115Z,98018.84
2022-09-21T20:24:22.164Z,98014.66
2022-09-21T20:26:51.743Z,98011.16
2022-09-21T20:29:21.820Z,98012.13
2022-09-21T20:31:51.801Z,98015.75
2022-09-21T20:34:20.339Z,98019.25
2022-09-21T20:36:50.016Z,98015.06
2022-09-21T20:39:18.410Z,98016.03
2022-09-21T20:41:47.546Z,98024.00
2022-09-21T20:44:15.901Z,98021.34
2022-09-21T20:46:44.325Z,98018.84
2022-09-21T20:49:15.238Z,98023.31
2022-09-21T20:51:43.616Z,98020.78
2022-09-21T20:54:13.283Z,98019.91
2022-09-21T20:56:41.636Z,98028.84
2022-09-21T20:59:09.950Z,98026.34
2022-09-21T21:01:38.621Z,98036.97
2022-09-21T21:04:07.031Z,98030.00
2022-09-21T21:06:35.455Z,98033.78
2022-09-21T21:09:03.837Z,98026.66
2022-09-21T21:11:33.673Z,98034.75
2022-09-21T21:14:02.961Z,98028.72
2022-09-21T21:16:31.970Z,98022.59
2022-09-21T21:19:00.864Z,98031.66
2022-09-21T21:21:29.314Z,98021.88
2022-09-21T21:24:15.290Z,98028.03
2022-09-21T21:27:01.413Z,98022.88
2022-09-21T21:29:31.146Z,98021.19
2022-09-21T21:32:00.496Z,98023.00
2022-09-21T21:34:29.553Z,98017.00
2022-09-21T21:36:58.004Z,98019.66
2022-09-21T21:39:26.492Z,98016.28
2022-09-21T21:41:56.284Z,98015.44
2022-09-21T21:44:24.667Z,98017.25
2022-09-21T21:46:53.870Z,98024.38
2022-09-21T21:49:22.348Z,98014.75
2022-09-21T21:51:50.827Z,98018.50
2022-09-21T21:54:19.869Z,98012.22
2022-09-21T21:56:48.193Z,98014.31
2022-09-21T21:59:18.301Z,98009.00
2022-09-21T22:01:46.822Z,98021.31
2022-09-21T22:04:15.278Z,98016.13
2022-09-21T22:06:43.937Z,98017.09
2022-09-21T22:09:14.594Z,98013.75
2022-09-21T22:11:43.138Z,98007.47
2022-09-21T22:14:12.807Z,98012.91
2022-09-21T22:16:42.573Z,98014.03
2022-09-21T22:19:11.235Z,98008.72
2022-09-21T22:21:40.985Z,98010.41
2022-09-21T22:24:10.536Z,98009.69
2022-09-21T22:26:40.606Z,98013.31
2022-09-21T22:29:10.185Z,98009.84
2022-09-21T22:31:41.049Z,98003.69
2022-09-21T22:34:12.533Z,98009.00
2022-09-21T22:36:41.605Z,98015.28
2022-09-21T22:39:10.055Z,98011.78
2022-09-21T22:41:39.721Z,98009.25
2022-09-21T22:44:08.528Z,98012.75
2022-09-21T22:46:37.284Z,98008.56
2022-09-21T22:49:05.739Z,98000.59
2022-09-21T22:51:37.954Z,98003.25
2022-09-21T22:54:06.602Z,98000.75
2022-09-21T22:56:35.598Z,98005.06
2022-09-21T22:59:05.703Z,97999.06
2022-09-21T23:01:36.254Z,98000.88
2022-09-21T23:04:06.736Z,98002.69
2022-09-21T23:06:39.363Z,97994.88
2022-09-21T23:09:14.096Z,97995.84
2022-09-21T23:11:47.166Z,97988.03
2022-09-21T23:14:16.477Z,97990.66
2022-09-21T23:16:45.136Z,97986.34
2022-09-21T23:19:16.234Z,97993.47
2022-09-21T23:21:49.472Z,97990.81
2022-09-21T23:24:18.449Z,97994.44
2022-09-21T23:26:47.546Z,97994.44
2022-09-21T23:29:16.514Z,97995.41
2022-09-21T23:31:46.267Z,97996.38
2022-09-21T23:34:16.659Z,97990.25
2022-09-21T23:36:46.401Z,97993.03
2022-09-21T23:39:16.052Z,97987.72
2022-09-21T23:41:44.972Z,97991.34
2022-09-21T23:44:13.604Z,97988.69
2022-09-21T23:46:42.685Z,97991.34
2022-09-21T23:49:11.360Z,97994.13
2022-09-21T23:51:39.918Z,97986.31
2022-09-21T23:54:09.710Z,97989.94
2022-09-21T23:56:38.565Z,97981.28
2022-09-21T23:59:07.037Z,97978.75
